createdAt,value
2022-12-08T00:01:13.606Z,99131.91
2022-12-08T00:03:41.854Z,99136.03
2022-12-08T00:06:25.514Z,99128.53
2022-12-08T00:08:52.588Z,99130.28
2022-12-08T00:11:19.926Z,99125.34
2022-12-08T00:13:46.779Z,99123.25
2022-12-08T00:16:13.619Z,99123.72
2022-12-08T00:18:40.521Z,99117.97
2022-12-08T00:21:07.410Z,99119.28
2022-12-08T00:23:34.386Z,99116.41
2022-12-08T00:26:06.028Z,99122.38
2022-12-08T00:28:34.721Z,99122.84
2022-12-08T00:31:08.717Z,99112.66
2022-12-08T00:33:36.561Z,99116.25
2022-12-08T00:36:10.830Z,99120.47
2022-12-08T00:38:39.039Z,99111.91
2022-12-08T00:41:21.233Z,99117.28
2022-12-08T00:43:48.105Z,99123.75
2022-12-08T00:46:14.921Z,99111.31
2022-12-08T00:48:41.730Z,99112.44
2022-12-08T00:51:08.508Z,99120.94
2022-12-08T00:53:35.446Z,99112.59
2022-12-08T00:56:02.150Z,99114.50
2022-12-08T00:58:29.023Z,99117.66
2022-12-08T01:00:55.890Z,99121.06
2022-12-08T01:03:22.907Z,99122.38
2022-12-08T01:05:49.662Z,99120.56
2022-12-08T01:08:16.552Z,99121.31
2022-12-08T01:10:43.401Z,99118.50
2022-12-08T01:13:10.293Z,99113.06
2022-12-08T01:15:37.223Z,99117.66
2022-12-08T01:18:04.304Z,99109.34
2022-12-08T01:20:31.052Z,99122.38
2022-12-08T01:22:57.882Z,99112.78
2022-12-08T01:25:24.661Z,99110.09
2022-12-08T01:27:52.973Z,99112.19
2022-12-08T01:30:21.221Z,99109.63
2022-12-08T01:32:48.236Z,99109.84
2022-12-08T01:35:15.535Z,99111.44
2022-12-08T01:37:42.292Z,99108.84
2022-12-08T01:40:09.544Z,99099.28
2022-12-08T01:42:36.408Z,99089.19
2022-12-08T01:45:07.871Z,99098.06
2022-12-08T01:47:41.502Z,99099.31
2022-12-08T01:50:12.120Z,99087.66
2022-12-08T01:52:51.793Z,99084.84
2022-12-08T01:55:32.087Z,99092.09
2022-12-08T01:58:39.665Z,99084.25
2022-12-08T02:01:07.214Z,99082.44
2022-12-08T02:03:42.094Z,99078.06
2022-12-08T02:06:10.836Z,99074.94
2022-12-08T02:08:41.127Z,99069.50
2022-12-08T02:11:12.343Z,99069.19
2022-12-08T02:13:41.674Z,99061.69
2022-12-08T02:16:30.288Z,99057.00
2022-12-08T02:19:30.808Z,99057.06
2022-12-08T02:22:03.854Z,99058.34
2022-12-08T02:24:49.419Z,99058.06
2022-12-08T02:27:40.836Z,99057.06
2022-12-08T02:30:11.814Z,99045.91
2022-12-08T02:33:06.206Z,99053.41
2022-12-08T02:35:53.667Z,99049.25
2022-12-08T02:38:27.225Z,99041.47
2022-12-08T02:41:30.597Z,99030.59
2022-12-08T02:44:17.344Z,99027.72
2022-12-08T02:46:55.900Z,99031.59
2022-12-08T02:49:29.716Z,99028.19
2022-12-08T02:52:25.297Z,99031.28
2022-12-08T02:54:55.429Z,99034.94
2022-12-08T02:57:46.135Z,99029.00
2022-12-08T03:00:18.810Z,99022.47
2022-12-08T03:03:00.144Z,99024.50
2022-12-08T03:05:41.405Z,99022.94
2022-12-08T03:08:25.280Z,99019.59
2022-12-08T03:11:11.641Z,99017.34
2022-12-08T03:13:46.498Z,99017.03
2022-12-08T03:16:18.535Z,99017.31
2022-12-08T03:18:50.811Z,99017.81
2022-12-08T03:21:21.238Z,99021.47
2022-12-08T03:23:52.273Z,99010.19
2022-12-08T03:26:27.334Z,99015.38
2022-12-08T03:28:54.587Z,99004.44
2022-12-08T03:31:25.479Z,99008.84
2022-12-08T03:33:56.862Z,99004.41
2022-12-08T03:36:24.251Z,99015.78
2022-12-08T03:38:53.676Z,99002.28
2022-12-08T03:41:22.413Z,99005.09
2022-12-08T03:43:53.645Z,98997.88
2022-12-08T03:48:49.069Z,98999.72
2022-12-08T03:51:16.723Z,98998.16
2022-12-08T03:53:44.891Z,98997.59
2022-12-08T03:56:28.129Z,98991.91
2022-12-08T03:58:55.516Z,98981.25
2022-12-08T04:01:23.205Z,98985.75
2022-12-08T04:03:50.274Z,98980.50
2022-12-08T04:06:17.785Z,98982.53
2022-12-08T04:08:44.633Z,98977.59
2022-12-08T04:11:11.814Z,98978.88
2022-12-08T04:13:40.163Z,98980.22
2022-12-08T04:16:08.597Z,98977.88
2022-12-08T04:18:36.050Z,98981.72
2022-12-08T04:21:02.891Z,98991.59
2022-12-08T04:23:29.719Z,98978.41
2022-12-08T04:25:56.490Z,98980.41
2022-12-08T04:28:23.358Z,98970.09
2022-12-08T04:30:50.256Z,98972.63
2022-12-08T04:33:17.900Z,98973.16
2022-12-08T04:35:44.787Z,98968.25
2022-12-08T04:38:11.879Z,98968.53
2022-12-08T04:40:39.063Z,98963.84
2022-12-08T04:43:05.940Z,98956.34
2022-12-08T04:45:33.457Z,98952.69
2022-12-08T04:48:01.560Z,98964.16
2022-12-08T04:50:28.811Z,98958.19
2022-12-08T04:52:55.557Z,98957.69
2022-12-08T04:55:22.405Z,98953.81
2022-12-08T04:57:50.009Z,98951.16
2022-12-08T05:00:17.889Z,98942.59
2022-12-08T05:02:44.748Z,98944.63
2022-12-08T05:05:11.688Z,98940.78
2022-12-08T05:07:38.467Z,98942.31
2022-12-08T05:10:06.216Z,98947.69
2022-12-08T05:12:33.575Z,98945.13
2022-12-08T05:15:00.353Z,98938.38
2022-12-08T05:17:27.384Z,98933.41
2022-12-08T05:19:54.621Z,98938.66
2022-12-08T05:22:21.897Z,98931.66
2022-12-08T05:24:48.984Z,98945.19
2022-12-08T05:27:16.625Z,98940.72
2022-12-08T05:29:43.402Z,98936.28
2022-12-08T05:32:10.212Z,98938.91
2022-12-08T05:34:37.003Z,98933.19
2022-12-08T05:37:04.262Z,98931.66
2022-12-08T05:39:31.152Z,98928.31
2022-12-08T05:41:57.881Z,98937.38
2022-12-08T05:44:24.685Z,98933.47
2022-12-08T05:46:51.988Z,98936.84
2022-12-08T05:49:18.806Z,98936.81
2022-12-08T05:51:45.565Z,98934.28
2022-12-08T05:54:12.349Z,98932.00
2022-12-08T05:56:39.120Z,98925.75
2022-12-08T05:59:07.149Z,98925.22
2022-12-08T06:01:34.682Z,98931.19
2022-12-08T06:04:03.556Z,98925.22
2022-12-08T06:06:31.626Z,98924.38
2022-12-08T06:08:58.530Z,98922.81
2022-12-08T06:11:30.461Z,98923.09
2022-12-08T06:13:58.631Z,98918.19
2022-12-08T06:16:26.967Z,98922.59
2022-12-08T06:18:55.322Z,98929.56
2022-12-08T06:21:22.128Z,98922.75
2022-12-08T06:23:50.629Z,98926.44
2022-12-08T06:26:18.125Z,98919.44
2022-12-08T06:28:45.131Z,98927.03
2022-12-08T06:31:21.127Z,98922.09
2022-12-08T06:33:48.991Z,98919.53
2022-12-08T06:36:18.298Z,98914.63
2022-12-08T06:38:45.112Z,98914.81
2022-12-08T06:41:12.754Z,98922.53
2022-12-08T06:43:40.004Z,98917.84
2022-12-08T06:46:10.345Z,98918.13
2022-12-08T06:48:37.194Z,98914.47
2022-12-08T06:51:12.694Z,98913.97
2022-12-08T06:53:40.026Z,98909.56
2022-12-08T06:56:07.423Z,98904.31
2022-12-08T06:58:35.357Z,98907.25
2022-12-08T07:01:07.422Z,98906.97
2022-12-08T07:03:34.515Z,98913.22
2022-12-08T07:06:04.131Z,98908.28
2022-12-08T07:08:32.344Z,98910.41
2022-12-08T07:10:59.166Z,98909.84
2022-12-08T07:13:25.943Z,98915.25
2022-12-08T07:15:52.733Z,98916.56
2022-12-08T07:18:19.489Z,98909.84
2022-12-08T07:20:46.220Z,98903.94
2022-12-08T07:23:12.977Z,98905.72
2022-12-08T07:25:39.774Z,98900.28
2022-12-08T07:28:11.087Z,98899.53
2022-12-08T07:30:39.315Z,98905.25
2022-12-08T07:33:06.273Z,98902.19
2022-12-08T07:35:35.005Z,98909.72
2022-12-08T07:38:02.586Z,98906.09
2022-12-08T07:40:29.437Z,98906.31
2022-12-08T07:42:56.176Z,98900.38
2022-12-08T07:45:26.910Z,98915.66
2022-12-08T07:47:57.989Z,98902.19
2022-12-08T07:50:24.713Z,98900.16
2022-12-08T07:52:51.506Z,98906.63
2022-12-08T07:55:18.226Z,98912.09
2022-12-08T07:57:44.966Z,98904.56
2022-12-08T08:00:12.338Z,98910.03
2022-12-08T08:02:39.278Z,98910.28
2022-12-08T08:05:06.648Z,98912.63
2022-12-08T08:07:33.526Z,98902.25
2022-12-08T08:10:00.405Z,98905.38
2022-12-08T08:12:31.713Z,98905.88
2022-12-08T08:15:01.335Z,98905.09
2022-12-08T08:17:29.482Z,98915.22
2022-12-08T08:19:57.058Z,98915.00
2022-12-08T08:22:25.252Z,98914.44
2022-12-08T08:24:52.600Z,98918.38
2022-12-08T08:27:19.910Z,98909.75
2022-12-08T08:29:46.771Z,98913.69
2022-12-08T08:32:13.531Z,98911.63
2022-12-08T08:34:40.305Z,98910.34
2022-12-08T08:37:07.071Z,98916.06
2022-12-08T08:39:33.996Z,98911.13
2022-12-08T08:42:00.893Z,98904.63
2022-12-08T08:44:27.728Z,98910.84
2022-12-08T08:46:54.509Z,98909.59
2022-12-08T08:49:21.492Z,98909.31
2022-12-08T08:51:48.271Z,98903.88
2022-12-08T08:54:16.010Z,98903.88
2022-12-08T08:56:42.802Z,98906.44
2022-12-08T08:59:10.583Z,98908.03
2022-12-08T09:01:37.391Z,98905.72
2022-12-08T09:04:04.311Z,98902.56
2022-12-08T09:06:31.416Z,98910.63
2022-12-08T09:08:58.223Z,98909.91
2022-12-08T09:11:24.969Z,98905.22
2022-12-08T09:13:53.373Z,98900.03
2022-12-08T09:16:21.256Z,98903.38
2022-12-08T09:18:48.640Z,98901.34
2022-12-08T09:21:17.699Z,98894.59
2022-12-08T09:23:44.409Z,98899.78
2022-12-08T09:26:11.232Z,98887.88
2022-12-08T09:28:38.278Z,98888.66
2022-12-08T09:31:05.258Z,98883.47
2022-12-08T09:33:33.440Z,98881.16
2022-12-08T09:36:04.162Z,98879.84
2022-12-08T09:38:31.830Z,98884.28
2022-12-08T09:40:59.915Z,98882.72
2022-12-08T09:43:50.785Z,98877.50
2022-12-08T09:46:19.011Z,98869.75
2022-12-08T09:48:53.906Z,98872.06
2022-12-08T09:51:21.933Z,98861.91
2022-12-08T09:53:54.763Z,98848.16
2022-12-08T09:56:33.239Z,98845.03
2022-12-08T09:59:05.573Z,98849.44
2022-12-08T10:01:35.923Z,98839.28
2022-12-08T10:04:02.799Z,98839.31
2022-12-08T10:06:54.710Z,98836.97
2022-12-08T10:09:39.867Z,98826.53
2022-12-08T10:12:28.183Z,98825.50
2022-12-08T10:14:57.546Z,98822.88
2022-12-08T10:17:26.348Z,98825.72
2022-12-08T10:20:20.348Z,98823.88
2022-12-08T10:22:52.401Z,98816.31
2022-12-08T10:25:30.410Z,98815.28
2022-12-08T10:27:58.880Z,98810.56
2022-12-08T10:30:25.655Z,98811.06
2022-12-08T10:32:54.056Z,98804.78
2022-12-08T10:35:22.742Z,98808.69
2022-12-08T10:38:01.671Z,98809.22
2022-12-08T10:40:39.084Z,98798.78
2022-12-08T10:43:16.089Z,98797.72
2022-12-08T10:45:42.839Z,98790.44
2022-12-08T10:48:24.171Z,98795.34
2022-12-08T10:50:58.840Z,98780.78
2022-12-08T10:53:33.564Z,98783.09
2022-12-08T10:56:03.046Z,98773.22
2022-12-08T10:58:41.888Z,98778.91
2022-12-08T11:01:21.549Z,98766.66
2022-12-08T11:03:55.441Z,98759.09
2022-12-08T11:06:30.654Z,98764.03
2022-12-08T11:09:03.200Z,98759.84
2022-12-08T11:11:51.676Z,98757.19
2022-12-08T11:14:42.427Z,98754.09
2022-12-08T11:17:11.837Z,98747.59
2022-12-08T11:19:40.159Z,98747.59
2022-12-08T11:22:31.305Z,98736.09
2022-12-08T11:25:02.200Z,98735.03
2022-12-08T11:27:29.262Z,98726.97
2022-12-08T11:29:56.452Z,98720.69
2022-12-08T11:32:23.199Z,98722.00
2022-12-08T11:34:58.402Z,98726.16
2022-12-08T11:37:35.181Z,98718.81
2022-12-08T11:40:14.106Z,98717.50
2022-12-08T11:43:11.934Z,98724.28
2022-12-08T11:45:41.582Z,98720.34
2022-12-08T11:48:16.222Z,98722.69
2022-12-08T11:50:51.906Z,98727.63
2022-12-08T11:53:30.531Z,98724.47
2022-12-08T11:56:03.833Z,98715.59
2022-12-08T11:58:42.247Z,98719.75
2022-12-08T12:01:20.907Z,98714.78
2022-12-08T12:03:54.706Z,98717.38
2022-12-08T12:06:55.720Z,98715.00
2022-12-08T12:09:32.176Z,98710.59
2022-12-08T12:12:13.583Z,98711.38
2022-12-08T12:15:10.597Z,98703.81
2022-12-08T12:17:59.729Z,98717.13
2022-12-08T12:20:32.046Z,98714.00
2022-12-08T12:23:07.319Z,98706.25
2022-12-08T12:25:37.022Z,98689.59
2022-12-08T12:28:07.770Z,98702.34
2022-12-08T12:31:06.896Z,98702.09
2022-12-08T12:33:35.391Z,98700.03
2022-12-08T12:36:05.852Z,98697.66
2022-12-08T12:38:36.875Z,98696.41
2022-12-08T12:41:05.871Z,98693.81
2022-12-08T12:43:35.639Z,98697.44
2022-12-08T12:46:24.495Z,98694.81
2022-12-08T12:48:52.270Z,98710.47
2022-12-08T12:51:48.021Z,98698.78
2022-12-08T12:54:27.182Z,98697.97
2022-12-08T12:56:56.193Z,98705.78
2022-12-08T13:00:06.024Z,98696.97
2022-12-08T13:02:35.954Z,98698.53
2022-12-08T13:05:08.254Z,98693.88
2022-12-08T13:07:45.833Z,98701.94
2022-12-08T13:10:16.339Z,98701.16
2022-12-08T13:12:45.020Z,98692.06
2022-12-08T13:15:20.041Z,98696.00
2022-12-08T13:17:49.046Z,98694.19
2022-12-08T13:20:22.462Z,98692.88
2022-12-08T13:23:02.317Z,98689.75
2022-12-08T13:25:44.318Z,98687.69
2022-12-08T13:28:26.984Z,98680.41
2022-12-08T13:31:01.358Z,98683.53
2022-12-08T13:33:39.091Z,98682.22
2022-12-08T13:36:05.931Z,98686.38
2022-12-08T13:38:36.967Z,98695.53
2022-12-08T13:41:09.379Z,98689.78
2022-12-08T13:43:55.574Z,98692.41
2022-12-08T13:47:24.741Z,98690.88
2022-12-08T13:54:10.091Z,98687.25
2022-12-08T13:58:26.202Z,98691.41
2022-12-08T14:00:57.875Z,98688.56
2022-12-08T14:03:24.839Z,98698.22
2022-12-08T14:11:54.618Z,98694.59
2022-12-08T14:15:01.122Z,98692.00
2022-12-08T14:17:22.935Z,98689.16
2022-12-08T14:20:05.778Z,98700.34
2022-12-08T14:22:37.949Z,98687.31
2022-12-08T14:25:07.612Z,98693.53
2022-12-08T14:27:38.080Z,98686.53
2022-12-08T14:30:29.311Z,98687.06
2022-12-08T14:33:01.110Z,98695.13
2022-12-08T14:35:27.813Z,98688.38
2022-12-08T14:38:00.822Z,98696.47
2022-12-08T14:40:41.988Z,98695.94
2022-12-08T14:43:08.766Z,98688.91
2022-12-08T14:45:48.153Z,98700.38
2022-12-08T14:48:25.123Z,98698.56
2022-12-08T14:51:04.133Z,98700.38
2022-12-08T14:53:39.135Z,98702.22
2022-12-08T14:56:25.955Z,98695.44
2022-12-08T14:59:26.874Z,98694.91
2022-12-08T15:02:09.264Z,98696.47
2022-12-08T15:04:39.386Z,98703.00
2022-12-08T15:07:16.117Z,98706.91
2022-12-08T15:09:49.156Z,98703.00
2022-12-08T15:12:26.142Z,98707.44
2022-12-08T15:14:59.599Z,98705.38
2022-12-08T15:17:40.930Z,98705.38
2022-12-08T15:20:34.803Z,98709.84
2022-12-08T15:23:03.397Z,98709.06
2022-12-08T15:25:30.526Z,98717.66
2022-12-08T15:27:57.807Z,98708.81
2022-12-08T15:30:25.522Z,98706.47
2022-12-08T15:32:53.291Z,98702.28
2022-12-08T15:35:20.313Z,98710.91
2022-12-08T15:37:47.077Z,98712.19
2022-12-08T15:40:21.891Z,98707.25
2022-12-08T15:42:49.492Z,98712.19
2022-12-08T15:45:17.304Z,98703.38
2022-12-08T15:47:45.136Z,98704.63
2022-12-08T15:50:17.392Z,98705.16
2022-12-08T15:52:44.283Z,98705.16
2022-12-08T15:55:15.716Z,98692.91
2022-12-08T15:58:44.706Z,98701.50
2022-12-08T16:00:52.361Z,98705.44
2022-12-08T16:05:17.824Z,98705.19
2022-12-08T16:09:18.773Z,98711.19
2022-12-08T16:12:05.856Z,98698.41
2022-12-08T16:15:39.696Z,98707.56
2022-12-08T16:17:21.267Z,98715.38
2022-12-08T16:19:49.171Z,98714.31
2022-12-08T16:25:23.356Z,98709.34
2022-12-08T16:28:17.265Z,98702.59
2022-12-08T16:30:42.140Z,98708.59
2022-12-08T16:33:10.103Z,98712.25
2022-12-08T16:35:36.948Z,98706.00
2022-12-08T16:38:04.185Z,98707.06
2022-12-08T16:40:31.434Z,98704.72
2022-12-08T16:42:58.432Z,98701.59
2022-12-08T16:45:30.233Z,98705.47
2022-12-08T16:48:01.322Z,98701.88
2022-12-08T16:50:31.319Z,98709.13
2022-12-08T16:53:04.378Z,98701.81
2022-12-08T16:55:33.332Z,98698.69
2022-12-08T16:58:00.809Z,98710.44
2022-12-08T17:00:29.654Z,98706.25
2022-12-08T17:02:57.208Z,98704.72
2022-12-08T17:05:26.017Z,98707.81
2022-12-08T17:07:54.019Z,98717.16
2022-12-08T17:10:25.831Z,98701.06
2022-12-08T17:12:53.778Z,98709.13
2022-12-08T17:15:23.176Z,98701.06
2022-12-08T17:17:51.914Z,98706.00
2022-12-08T17:20:24.812Z,98703.91
2022-12-08T17:22:55.226Z,98702.09
2022-12-08T17:25:22.355Z,98704.72
2022-12-08T17:27:49.357Z,98710.69
2022-12-08T17:30:17.019Z,98713.53
2022-12-08T17:32:44.380Z,98709.66
2022-12-08T17:35:11.929Z,98703.16
2022-12-08T17:37:38.790Z,98702.34
2022-12-08T17:40:06.795Z,98706.25
2022-12-08T17:42:34.052Z,98700.81
2022-12-08T17:45:01.541Z,98700.03
2022-12-08T17:47:31.853Z,98704.19
2022-12-08T17:49:59.808Z,98696.38
2022-12-08T17:52:27.270Z,98689.63
2022-12-08T17:54:54.112Z,98688.28
2022-12-08T17:57:22.315Z,98687.78
2022-12-08T17:59:49.435Z,98687.78
2022-12-08T18:02:16.671Z,98690.66
2022-12-08T18:04:43.980Z,98688.56
2022-12-08T18:07:11.252Z,98687.50
2022-12-08T18:09:38.635Z,98690.41
2022-12-08T18:12:06.738Z,98679.22
2022-12-08T18:14:35.138Z,98685.44
2022-12-08T18:17:03.058Z,98676.63
2022-12-08T18:19:30.257Z,98675.56
2022-12-08T18:21:57.456Z,98669.56
2022-12-08T18:24:25.067Z,98671.91
2022-12-08T18:26:52.744Z,98672.19
2022-12-08T18:29:22.033Z,98669.81
2022-12-08T18:31:50.508Z,98665.69
2022-12-08T18:34:17.824Z,98663.06
2022-12-08T18:36:45.200Z,98666.69
2022-12-08T18:39:27.151Z,98663.59
2022-12-08T18:41:56.082Z,98670.59
2022-12-08T18:44:23.385Z,98674.78
2022-12-08T18:46:51.081Z,98674.50
2022-12-08T18:49:20.199Z,98676.09
2022-12-08T18:51:48.037Z,98680.00
2022-12-08T18:54:15.118Z,98684.91
2022-12-08T18:56:43.046Z,98684.41
2022-12-08T18:59:12.787Z,98687.28
2022-12-08T19:01:41.134Z,98681.28
2022-12-08T19:06:57.218Z,98679.47
2022-12-08T19:09:24.986Z,98682.84
2022-12-08T19:11:52.741Z,98684.72
2022-12-08T19:14:25.882Z,98686.78
2022-12-08T19:16:55.856Z,98688.03
2022-12-08T19:19:24.009Z,98689.63
2022-12-08T19:21:51.849Z,98685.19
2022-12-08T19:24:19.204Z,98683.09
2022-12-08T19:26:46.731Z,98687.03
2022-12-08T19:29:14.136Z,98687.03
2022-12-08T19:31:42.950Z,98678.19
2022-12-08T19:34:17.155Z,98686.00
2022-12-08T19:36:45.601Z,98699.75
2022-12-08T19:39:22.233Z,98686.50
2022-12-08T19:41:52.988Z,98684.66
2022-12-08T19:44:26.986Z,98681.28
2022-12-08T19:46:55.077Z,98693.00
2022-12-08T19:49:23.613Z,98681.28
2022-12-08T19:51:51.571Z,98684.19
2022-12-08T19:54:19.435Z,98682.06
2022-12-08T19:56:48.825Z,98677.63
2022-12-08T19:59:17.151Z,98674.78
2022-12-08T20:01:46.909Z,98674.25
2022-12-08T20:04:16.162Z,98678.16
2022-12-08T20:06:46.420Z,98673.47
2022-12-08T20:09:15.739Z,98677.09
2022-12-08T20:11:43.387Z,98672.75
2022-12-08T20:14:11.010Z,98683.41
2022-12-08T20:16:39.185Z,98684.91
2022-12-08T20:19:08.316Z,98678.44
2022-12-08T20:21:41.835Z,98674.78
2022-12-08T20:24:09.602Z,98676.84
2022-12-08T20:26:37.164Z,98679.72
2022-12-08T20:29:04.811Z,98686.22
2022-12-08T20:31:33.513Z,98678.94
2022-12-08T20:34:01.951Z,98674.50
2022-12-08T20:36:29.673Z,98678.69
2022-12-08T20:38:58.737Z,98678.44
2022-12-08T20:41:26.322Z,98681.53
2022-12-08T20:43:55.840Z,98678.19
2022-12-08T20:46:25.502Z,98671.41
2022-12-08T20:48:53.022Z,98671.41
2022-12-08T20:51:20.611Z,98680.28
2022-12-08T20:53:47.970Z,98684.19
2022-12-08T20:56:20.595Z,98688.09
2022-12-08T20:58:48.597Z,98683.41
2022-12-08T21:01:19.586Z,98686.53
2022-12-08T21:03:47.851Z,98688.38
2022-12-08T21:06:15.830Z,98681.31
2022-12-08T21:08:42.925Z,98679.50
2022-12-08T21:11:10.919Z,98676.66
2022-12-08T21:13:38.571Z,98670.16
2022-12-08T21:16:06.749Z,98674.53
2022-12-08T21:18:39.189Z,98669.88
2022-12-08T21:21:11.363Z,98671.94
2022-12-08T21:23:38.627Z,98664.38
2022-12-08T21:26:17.500Z,98671.94
2022-12-08T21:28:46.305Z,98660.75
2022-12-08T21:31:17.064Z,98668.31
2022-12-08T21:33:44.545Z,98656.34
2022-12-08T21:36:14.099Z,98655.31
2022-12-08T21:38:42.659Z,98650.59
2022-12-08T21:41:13.650Z,98662.34
2022-12-08T21:43:41.454Z,98664.94
2022-12-08T21:46:15.337Z,98660.50
2022-12-08T21:48:42.298Z,98664.13
2022-12-08T21:51:09.357Z,98669.88
2022-12-08T21:53:36.138Z,98649.81
2022-12-08T21:56:08.392Z,98653.19
2022-12-08T21:58:35.393Z,98655.31
2022-12-08T22:01:10.408Z,98658.69
2022-12-08T22:03:39.200Z,98661.81
2022-12-08T22:06:08.253Z,98661.28
2022-12-08T22:08:35.971Z,98670.38
2022-12-08T22:11:03.485Z,98668.56
2022-12-08T22:13:30.410Z,98665.97
2022-12-08T22:15:58.473Z,98668.31
2022-12-08T22:18:25.925Z,98665.19
2022-12-08T22:20:53.650Z,98667.84
2022-12-08T22:23:21.319Z,98661.56
2022-12-08T22:26:00.126Z,98663.16
2022-12-08T22:28:28.009Z,98653.00
2022-12-08T22:30:55.030Z,98653.53
2022-12-08T22:33:21.992Z,98655.06
2022-12-08T22:35:57.378Z,98654.25
2022-12-08T22:38:25.062Z,98652.72
2022-12-08T22:40:52.260Z,98654.00
2022-12-08T22:43:19.628Z,98647.75
2022-12-08T22:45:46.894Z,98650.63
2022-12-08T22:48:13.985Z,98644.13
2022-12-08T22:50:41.968Z,98643.34
2022-12-08T22:53:12.348Z,98644.41
2022-12-08T22:55:44.169Z,98650.16
2022-12-08T22:58:11.896Z,98641.56
2022-12-08T23:00:39.651Z,98650.16
2022-12-08T23:03:07.032Z,98641.28
2022-12-08T23:05:35.966Z,98640.22
2022-12-08T23:08:04.451Z,98633.97
2022-12-08T23:10:32.722Z,98628.53
2022-12-08T23:13:03.734Z,98627.22
2022-12-08T23:15:31.806Z,98624.09
2022-12-08T23:17:59.935Z,98635.59
2022-12-08T23:20:27.185Z,98642.34
2022-12-08T23:22:53.970Z,98632.72
2022-12-08T23:25:20.975Z,98637.13
2022-12-08T23:27:48.066Z,98625.69
2022-12-08T23:30:15.988Z,98649.63
2022-12-08T23:32:42.929Z,98655.06
2022-12-08T23:35:10.162Z,98654.28
2022-12-08T23:37:37.451Z,98640.22
2022-12-08T23:40:05.501Z,98642.34
2022-12-08T23:42:33.027Z,98645.75
2022-12-08T23:44:59.866Z,98646.00
2022-12-08T23:47:26.759Z,98637.91
2022-12-08T23:49:53.571Z,98641.56
2022-12-08T23:52:20.344Z,98642.06
2022-12-08T23:54:50.313Z,98642.34
2022-12-08T23:57:17.374Z,98642.84
2022-12-08T23:59:44.320Z,98639.16
